Elation — 3FOC5 — position and weather

sailwx.info

Track history (hours):
 
Tides and Currents Weather Stations Pressure Air Temp Water Temp Dewpoint Dewpoint Depression Visibility Wind Speed Wind Dir Waves Ship Positions

Elation

Operator: Carnival Cruise Lines

Last reported at 2016-Apr-28 01:17 UTC. Time now 2016-Apr-30 03:24 UTC.
Position N 30°09' W 080°43'.

Type: Ship. MMSI: 355831000.

Date/timePositionNaut miles runAvg speedWind from/ knotsBaromVisibWave heightAir tempDewpointWater temp
2016-Apr-28 01:17N 30°09' W 080°43'10 8.9
2016-Apr-28 00:12N 29°59' W 080°42'7 9.5
2016-Apr-27 23:29N 29°54' W 080°36'  
2016-Apr-20 11:22N 18°19' W 064°55'6 7.9
2016-Apr-20 10:33N 18°12' W 064°54'3811.6
2016-Apr-20 07:18N 18°05' W 064°15'1012.8
2016-Apr-20 06:31N 18°03' W 064°05'2512.5
2016-Apr-20 04:32N 17°56' W 063°40'1312.0
2016-Apr-20 03:29N 17°51' W 063°28'1111.4
2016-Apr-20 02:33N 17°47' W 063°17'1210.6
2016-Apr-20 01:23N 17°39' W 063°08'65 3.8
2016-Apr-19 08:20N 16°44' W 062°32'1417.2
2016-Apr-19 07:31N 16°31' W 062°26'  
Track history (hours):
 
Tides and Currents Weather Stations Pressure Air Temp Water Temp Dewpoint Dewpoint Depression Visibility Wind Speed Wind Dir Waves Ship Positions

Elation

Operator: Carnival Cruise Lines

Last reported at 2016-Apr-28 01:17 UTC. Time now 2016-Apr-30 03:24 UTC.
Position N 30°09' W 080°43'.

Type: Ship. MMSI: 355831000.

Date/timePositionNaut miles runAvg speedWind from/ knotsBaromVisibWave heightAir tempDewpointWater temp
2016-Apr-28 01:17N 30°09' W 080°43'10 8.9
2016-Apr-28 00:12N 29°59' W 080°42'7 9.5
2016-Apr-27 23:29N 29°54' W 080°36'  
2016-Apr-20 11:22N 18°19' W 064°55'6 7.9
2016-Apr-20 10:33N 18°12' W 064°54'3811.6
2016-Apr-20 07:18N 18°05' W 064°15'1012.8
2016-Apr-20 06:31N 18°03' W 064°05'2512.5
2016-Apr-20 04:32N 17°56' W 063°40'1312.0
2016-Apr-20 03:29N 17°51' W 063°28'1111.4
2016-Apr-20 02:33N 17°47' W 063°17'1210.6
2016-Apr-20 01:23N 17°39' W 063°08'65 3.8
2016-Apr-19 08:20N 16°44' W 062°32'1417.2
2016-Apr-19 07:31N 16°31' W 062°26'  

Dump ship's entire track history